Time;durP1;ratioP1;P1;durP2;ratioP2;P2;SDS_P1;SDS_P2;PMS_P1;PMS_P2;Temp;Humidity;BMP_temperature;BMP_pressure;BME280_temperature;BME280_humidity;BME280_pressure;Samples;Min_cycle;Max_cycle;Signal;HPM_P1;HPM_P2
2022/03/09 00:02:15;;;;;;;7.85;7.45;;;;;;;-1.63;100.00;100909.94;5029544;28;20038;-70
2022/03/09 00:04:40;;;;;;;8.05;7.65;;;;;;;-1.60;100.00;100912.38;5022967;28;20029;-69
2022/03/09 00:07:06;;;;;;;8.63;8.13;;;;;;;-1.58;100.00;100920.09;5033898;28;20083;-69
2022/03/09 00:09:32;;;;;;;8.82;8.32;;;;;;;-1.57;100.00;100917.38;5028897;28;20107;-70
2022/03/09 00:11:57;;;;;;;8.20;7.80;;;;;;;-1.71;100.00;100918.16;5029053;28;20403;-72
2022/03/09 00:14:23;;;;;;;8.13;7.72;;;;;;;-1.73;100.00;100909.63;5031264;28;20079;-71
2022/03/09 00:16:48;;;;;;;7.97;7.57;;;;;;;-1.78;100.00;100911.63;5026684;28;20481;-72
2022/03/09 00:19:14;;;;;;;8.35;7.95;;;;;;;-1.71;100.00;100917.34;5028924;28;20108;-69
2022/03/09 00:21:39;;;;;;;8.63;8.13;;;;;;;-1.75;100.00;100923.66;5024236;28;20029;-71
2022/03/09 00:24:05;;;;;;;8.00;7.60;;;;;;;-1.72;100.00;100924.31;5030916;28;20033;-71
2022/03/09 00:26:31;;;;;;;8.15;7.75;;;;;;;-1.72;100.00;100936.47;5033620;28;20558;-70
2022/03/09 00:28:56;;;;;;;7.93;7.53;;;;;;;-1.71;100.00;100918.16;5033676;28;20034;-72
2022/03/09 00:31:22;;;;;;;8.93;8.43;;;;;;;-1.67;100.00;100921.44;5022782;28;20029;-72
2022/03/09 00:33:47;;;;;;;8.02;7.63;;;;;;;-1.73;100.00;100907.03;5029974;28;20129;-72
2022/03/09 00:36:13;;;;;;;9.45;8.85;;;;;;;-1.78;100.00;100906.44;5029319;28;20075;-69
2022/03/09 00:38:38;;;;;;;7.97;7.57;;;;;;;-1.76;100.00;100909.81;5030440;28;20475;-71
2022/03/09 00:41:04;;;;;;;8.73;8.23;;;;;;;-1.80;100.00;100907.47;5035016;28;20036;-71
2022/03/09 00:43:29;;;;;;;8.70;8.20;;;;;;;-1.93;100.00;100907.28;5019608;28;20056;-71
2022/03/09 00:45:55;;;;;;;8.73;8.23;;;;;;;-1.89;100.00;100898.41;5030333;28;20450;-72
2022/03/09 00:48:21;;;;;;;8.00;7.60;;;;;;;-1.80;100.00;100913.50;5029897;28;20432;-72
2022/03/09 00:50:47;;;;;;;8.73;8.23;;;;;;;-1.88;100.00;100907.06;5028710;28;20034;-72
2022/03/09 00:53:13;;;;;;;8.57;8.07;;;;;;;-1.89;100.00;100910.59;5021323;28;20021;-72
2022/03/09 00:55:39;;;;;;;8.93;8.43;;;;;;;-1.96;100.00;100917.88;5029971;28;20072;-72
2022/03/09 00:58:05;;;;;;;10.10;9.40;;;;;;;-1.97;100.00;100919.66;5028081;28;20499;-71
2022/03/09 01:00:31;;;;;;;8.75;8.25;;;;;;;-2.00;100.00;100918.97;5030876;28;20056;-71
2022/03/09 01:02:56;;;;;;;8.93;8.43;;;;;;;-2.02;100.00;100926.84;5027833;28;20060;-70
2022/03/09 01:05:22;;;;;;;8.20;7.80;;;;;;;-2.07;100.00;100920.22;5033982;28;20080;-70
2022/03/09 01:07:47;;;;;;;8.73;8.23;;;;;;;-2.03;100.00;100917.38;5034574;28;20395;-70
2022/03/09 01:10:13;;;;;;;8.73;8.23;;;;;;;-2.15;100.00;100925.00;5033843;28;20446;-70
2022/03/09 01:12:38;;;;;;;8.82;8.32;;;;;;;-2.14;100.00;100926.69;5033923;28;20130;-70
2022/03/09 01:15:04;;;;;;;8.70;8.20;;;;;;;-2.19;100.00;100916.56;5031836;28;20492;-68
2022/03/09 01:17:31;;;;;;;8.60;8.10;;;;;;;-2.28;100.00;100923.09;5035817;28;20040;-69
2022/03/09 01:19:56;;;;;;;8.70;8.20;;;;;;;-2.29;100.00;100925.75;5045824;28;20061;-70
2022/03/09 01:22:22;;;;;;;8.75;8.25;;;;;;;-2.27;100.00;100921.31;5035091;28;20052;-68
2022/03/09 01:24:47;;;;;;;8.10;7.70;;;;;;;-2.32;100.00;100925.94;5039076;28;20040;-70
2022/03/09 01:27:13;;;;;;;8.65;8.15;;;;;;;-2.35;100.00;100934.72;5040847;28;20022;-70
2022/03/09 01:29:39;;;;;;;8.32;7.93;;;;;;;-2.42;100.00;100924.72;5029727;28;20026;-65
2022/03/09 01:32:05;;;;;;;9.20;8.63;;;;;;;-2.49;100.00;100934.63;5030890;28;20755;-69
2022/03/09 01:34:30;;;;;;;8.20;7.80;;;;;;;-2.50;100.00;100938.13;5042604;28;20067;-68
2022/03/09 01:36:56;;;;;;;8.25;7.85;;;;;;;-2.62;100.00;100936.19;5030921;28;20025;-69
2022/03/09 01:39:21;;;;;;;8.77;8.27;;;;;;;-2.61;100.00;100930.91;5032577;28;20028;-68
2022/03/09 01:41:47;;;;;;;8.82;8.32;;;;;;;-2.73;100.00;100926.34;5032609;28;20033;-68
2022/03/09 01:44:16;;;;;;;9.18;8.68;;;;;;;-2.68;100.00;100939.09;5017673;28;20030;-67
2022/03/09 01:46:42;;;;;;;9.18;8.68;;;;;;;-2.71;100.00;100939.28;5028376;28;20554;-69
2022/03/09 01:49:09;;;;;;;9.57;8.98;;;;;;;-2.77;100.00;100945.63;5033078;28;20477;-68
2022/03/09 01:51:38;;;;;;;8.60;8.20;;;;;;;-2.87;100.00;100945.22;5032393;28;20036;-68
2022/03/09 01:54:04;;;;;;;9.57;9.07;;;;;;;-2.90;100.00;100945.41;5029413;28;20033;-68
2022/03/09 01:56:30;;;;;;;10.32;9.68;;;;;;;-2.98;100.00;100950.16;5032126;28;20037;-68
2022/03/09 01:58:56;;;;;;;9.38;8.88;;;;;;;-3.15;100.00;100938.03;5034989;28;20056;-68
2022/03/09 02:01:22;;;;;;;9.77;9.25;;;;;;;-3.18;100.00;100945.13;5033596;28;20102;-68
2022/03/09 02:03:47;;;;;;;9.88;9.38;;;;;;;-3.21;100.00;100951.31;5032926;28;20152;-68
2022/03/09 02:06:13;;;;;;;10.50;9.90;;;;;;;-3.24;100.00;100955.78;5034554;28;20472;-68
2022/03/09 02:11:22;;;;;;;10.23;9.63;;;;;;;-3.34;100.00;100939.84;5032935;28;20079;-68
2022/03/09 02:13:48;;;;;;;10.88;10.18;;;;;;;-3.35;100.00;100958.94;5037100;28;20037;-68
2022/03/09 02:16:14;;;;;;;11.45;10.65;;;;;;;-3.33;100.00;100957.94;5015153;28;20026;-68
2022/03/09 02:18:40;;;;;;;11.05;10.35;;;;;;;-3.26;100.00;100953.28;5022536;28;20124;-68
2022/03/09 02:21:08;;;;;;;10.38;9.77;;;;;;;-3.35;100.00;100954.56;5022891;28;20124;-68
2022/03/09 02:23:34;;;;;;;9.65;9.15;;;;;;;-3.40;100.00;100948.78;5032009;28;20451;-68
2022/03/09 02:25:59;;;;;;;9.68;9.18;;;;;;;-3.40;100.00;100956.56;5031123;28;20159;-68
2022/03/09 02:28:25;;;;;;;10.40;9.80;;;;;;;-3.41;100.00;100959.22;5031839;28;20079;-68
2022/03/09 02:30:55;;;;;;;10.30;9.70;;;;;;;-3.51;100.00;100958.00;5028711;28;20095;-69
2022/03/09 02:33:20;;;;;;;9.90;9.30;;;;;;;-3.49;100.00;100959.59;5030089;28;20531;-68
2022/03/09 02:35:46;;;;;;;10.20;9.60;;;;;;;-3.54;100.00;100958.97;5026593;28;20034;-69
2022/03/09 02:38:11;;;;;;;10.50;9.90;;;;;;;-3.62;100.00;100951.56;5023750;28;20032;-69
2022/03/09 02:40:37;;;;;;;11.52;10.82;;;;;;;-3.68;100.00;100954.44;5022682;28;20033;-69
2022/03/09 02:43:02;;;;;;;10.50;9.90;;;;;;;-3.82;100.00;100949.06;5033185;28;20048;-69
2022/03/09 02:45:28;;;;;;;10.23;9.68;;;;;;;-3.82;100.00;100953.44;5034663;28;20029;-68
2022/03/09 02:47:53;;;;;;;10.57;9.98;;;;;;;-3.88;100.00;100949.41;5037448;28;20021;-67
2022/03/09 02:50:19;;;;;;;11.27;10.57;;;;;;;-3.85;100.00;100954.41;5028614;28;20033;-68
2022/03/09 02:52:44;;;;;;;11.20;10.50;;;;;;;-3.77;100.00;100957.47;5032128;28;20030;-68
2022/03/09 02:55:11;;;;;;;10.60;10.00;;;;;;;-3.75;100.00;100967.78;5018701;28;20030;-69
2022/03/09 02:57:38;;;;;;;10.75;10.15;;;;;;;-3.74;100.00;100962.53;5040401;28;20112;-68
2022/03/09 03:00:07;;;;;;;11.00;10.40;;;;;;;-3.75;100.00;100963.44;5028263;28;20048;-67
2022/03/09 03:02:33;;;;;;;10.80;10.20;;;;;;;-3.75;100.00;100962.59;5032355;28;20026;-68
2022/03/09 03:04:58;;;;;;;10.43;9.82;;;;;;;-3.65;100.00;100967.28;5027197;28;20056;-67
2022/03/09 03:07:24;;;;;;;10.95;10.25;;;;;;;-3.62;100.00;100979.25;5030742;28;20025;-68
2022/03/09 03:09:49;;;;;;;10.43;9.85;;;;;;;-3.57;100.00;100976.44;5036546;28;20055;-68
2022/03/09 03:12:15;;;;;;;10.15;9.57;;;;;;;-3.61;100.00;100968.78;5040470;28;20037;-68
2022/03/09 03:14:40;;;;;;;10.43;9.82;;;;;;;-3.59;100.00;100970.50;5029579;28;20439;-67
2022/03/09 03:17:06;;;;;;;9.95;9.45;;;;;;;-3.50;100.00;100988.22;5030629;28;20025;-68
2022/03/09 03:19:31;;;;;;;9.65;9.15;;;;;;;-3.49;100.00;100987.28;5039451;28;20029;-68
2022/03/09 03:21:57;;;;;;;10.43;9.82;;;;;;;-3.46;100.00;100982.78;5030850;28;20030;-68
2022/03/09 03:24:22;;;;;;;10.43;9.82;;;;;;;-3.48;100.00;100984.63;5030824;28;20028;-68
2022/03/09 03:26:47;;;;;;;10.13;9.52;;;;;;;-3.39;100.00;100991.94;5029943;28;20393;-68
2022/03/09 03:29:13;;;;;;;10.30;9.70;;;;;;;-3.42;100.00;100988.66;5030457;28;20487;-67
2022/03/09 03:31:38;;;;;;;10.23;9.68;;;;;;;-3.41;100.00;100987.75;5029525;28;20036;-69
2022/03/09 03:34:04;;;;;;;10.45;9.85;;;;;;;-3.42;100.00;100976.53;5032197;28;20077;-68
2022/03/09 03:36:29;;;;;;;10.55;9.95;;;;;;;-3.42;100.00;100984.31;5030404;28;20045;-68
2022/03/09 03:38:56;;;;;;;10.35;9.75;;;;;;;-3.54;100.00;100981.47;5030421;28;20402;-68
2022/03/09 03:41:22;;;;;;;10.55;9.95;;;;;;;-3.44;100.00;100987.91;5032433;28;20035;-68
2022/03/09 03:43:47;;;;;;;10.55;9.95;;;;;;;-3.57;100.00;100960.88;5031400;28;20408;-67
2022/03/09 03:46:13;;;;;;;10.25;9.65;;;;;;;-3.55;100.00;100982.38;5016431;28;20025;-68
2022/03/09 03:48:38;;;;;;;11.23;10.52;;;;;;;-3.41;100.00;100996.38;5031389;28;20060;-68
2022/03/09 03:51:04;;;;;;;10.00;9.43;;;;;;;-3.50;100.00;100996.00;5030802;28;20436;-69
2022/03/09 03:53:29;;;;;;;10.13;9.52;;;;;;;-3.41;100.00;101003.31;5033696;28;20033;-68
2022/03/09 03:55:54;;;;;;;9.80;9.30;;;;;;;-3.47;100.00;100996.66;5039211;28;20026;-68
2022/03/09 03:58:20;;;;;;;9.98;9.40;;;;;;;-3.41;100.00;101000.72;5038799;28;20040;-68
2022/03/09 04:00:45;;;;;;;10.20;9.60;;;;;;;-3.36;100.00;101006.53;5028444;28;20039;-69
2022/03/09 04:03:11;;;;;;;10.35;9.75;;;;;;;-3.42;100.00;101004.22;5028998;28;20523;-69
2022/03/09 04:05:36;;;;;;;10.48;9.88;;;;;;;-3.37;100.00;101012.66;5030010;28;20074;-69
2022/03/09 04:08:02;;;;;;;10.60;10.00;;;;;;;-3.42;100.00;101004.22;5028602;28;20124;-69
2022/03/09 04:10:27;;;;;;;10.75;10.07;;;;;;;-3.41;100.00;101008.50;5013966;28;20030;-69
2022/03/09 04:12:53;;;;;;;9.80;9.30;;;;;;;-3.42;100.00;101015.44;5031296;28;20075;-69
2022/03/09 04:15:18;;;;;;;9.98;9.48;;;;;;;-3.41;100.00;101013.69;5030242;28;20083;-69
2022/03/09 04:17:45;;;;;;;10.60;10.00;;;;;;;-3.36;100.00;101022.09;5029623;28;20021;-69
2022/03/09 04:20:12;;;;;;;9.93;9.43;;;;;;;-3.44;100.00;101019.03;5030066;28;20063;-70
2022/03/09 04:22:38;;;;;;;10.27;9.68;;;;;;;-3.45;100.00;101023.38;5030444;28;20392;-69
2022/03/09 04:25:04;;;;;;;10.48;9.88;;;;;;;-3.50;100.00;101017.56;5029976;28;20112;-69
2022/03/09 04:27:30;;;;;;;10.35;9.75;;;;;;;-3.46;100.00;101021.69;5023198;28;20100;-69
2022/03/09 04:29:55;;;;;;;10.98;10.27;;;;;;;-3.52;100.00;101021.16;5018962;28;20451;-69
2022/03/09 04:32:21;;;;;;;10.50;9.90;;;;;;;-3.64;100.00;101031.19;5034549;28;20025;-69
2022/03/09 04:34:46;;;;;;;10.32;9.73;;;;;;;-3.57;100.00;101026.56;5027877;28;20564;-69
2022/03/09 04:37:12;;;;;;;10.75;10.13;;;;;;;-3.82;100.00;101034.63;5029621;28;20072;-69
2022/03/09 04:39:37;;;;;;;10.73;10.05;;;;;;;-3.56;100.00;101029.97;5040281;28;20074;-69
2022/03/09 04:42:03;;;;;;;10.43;9.82;;;;;;;-3.49;100.00;101031.38;5044514;28;20115;-69
2022/03/09 04:44:29;;;;;;;11.40;10.70;;;;;;;-3.48;100.00;101031.28;5032515;28;20095;-69
2022/03/09 04:46:54;;;;;;;9.85;9.35;;;;;;;-3.42;100.00;101036.19;5035079;28;20041;-69
2022/03/09 04:49:20;;;;;;;10.65;10.00;;;;;;;-3.45;100.00;101035.50;5032809;28;20132;-69
2022/03/09 04:51:46;;;;;;;11.10;10.40;;;;;;;-3.52;100.00;101036.72;5032742;28;20084;-69
2022/03/09 04:54:11;;;;;;;10.30;9.70;;;;;;;-3.55;100.00;101049.81;5033446;28;20025;-68
2022/03/09 04:56:37;;;;;;;10.70;10.05;;;;;;;-3.46;100.00;101051.97;5030214;28;20524;-69
2022/03/09 04:59:03;;;;;;;10.48;9.88;;;;;;;-3.46;100.00;101058.00;5028381;28;20460;-69
2022/03/09 05:01:28;;;;;;;11.95;11.15;;;;;;;-3.33;100.00;101058.25;5032943;28;20112;-70
2022/03/09 05:03:54;;;;;;;10.23;9.63;;;;;;;-3.53;100.00;101047.97;5033597;28;20550;-69
2022/03/09 05:06:19;;;;;;;11.05;10.35;;;;;;;-3.36;100.00;101059.25;5033074;28;20025;-69
2022/03/09 05:08:45;;;;;;;10.30;9.70;;;;;;;-3.38;100.00;101061.09;5035460;28;20052;-69
2022/03/09 05:11:11;;;;;;;10.82;10.18;;;;;;;-3.28;100.00;101073.63;5032139;28;20084;-69
2022/03/09 05:13:36;;;;;;;10.95;10.25;;;;;;;-3.14;100.00;101066.03;5032340;28;20033;-70
2022/03/09 05:16:02;;;;;;;10.55;9.90;;;;;;;-3.12;100.00;101065.03;5032777;28;20025;-69
2022/03/09 05:18:28;;;;;;;11.57;10.77;;;;;;;-2.97;100.00;101079.00;5036884;28;20433;-69
2022/03/09 05:20:53;;;;;;;11.73;10.93;;;;;;;-2.79;100.00;101082.47;5014951;28;20083;-69
2022/03/09 05:23:19;;;;;;;14.93;13.63;;;;;;;-2.99;100.00;101080.84;5030878;28;20021;-69
2022/03/09 05:25:45;;;;;;;10.48;9.85;;;;;;;-3.02;100.00;101085.31;5042146;28;20048;-69
2022/03/09 05:28:10;;;;;;;10.15;9.55;;;;;;;-3.00;100.00;101099.09;5032193;28;20018;-69
2022/03/09 05:30:36;;;;;;;11.00;10.30;;;;;;;-3.06;100.00;101100.22;5031540;28;20579;-69
2022/03/09 05:33:01;;;;;;;12.20;11.30;;;;;;;-3.00;100.00;101099.94;5024439;28;20029;-70
2022/03/09 05:35:27;;;;;;;11.95;11.05;;;;;;;-3.08;100.00;101102.06;5022728;28;20044;-69
2022/03/09 05:37:52;;;;;;;11.20;10.45;;;;;;;-2.94;100.00;101104.78;5021482;28;20033;-69
2022/03/09 05:40:18;;;;;;;10.43;9.80;;;;;;;-2.95;100.00;101110.91;5020713;28;20118;-66
2022/03/09 05:42:44;;;;;;;12.68;11.68;;;;;;;-3.11;100.00;101117.75;5030113;28;20037;-68
2022/03/09 05:45:10;;;;;;;10.80;10.15;;;;;;;-3.08;100.00;101126.25;5020918;28;20090;-67
2022/03/09 05:47:36;;;;;;;10.68;10.00;;;;;;;-2.90;100.00;101121.09;5027247;28;20029;-68
2022/03/09 05:50:01;;;;;;;10.88;10.18;;;;;;;-2.96;100.00;101131.75;5028564;28;20417;-68
2022/03/09 05:52:27;;;;;;;12.43;11.52;;;;;;;-3.19;100.00;101132.84;5029820;28;20021;-70
2022/03/09 05:54:52;;;;;;;10.38;9.77;;;;;;;-3.11;100.00;101144.53;5030441;28;20021;-69
2022/03/09 05:57:20;;;;;;;10.77;10.10;;;;;;;-2.94;100.00;101145.50;5030563;28;20022;-70
2022/03/09 05:59:45;;;;;;;12.07;11.18;;;;;;;-3.01;100.00;101149.28;5015946;28;20175;-69
2022/03/09 06:02:11;;;;;;;9.95;9.35;;;;;;;-2.96;100.00;101129.16;5026405;28;20559;-69
2022/03/09 06:04:37;;;;;;;11.13;10.40;;;;;;;-2.60;100.00;101148.16;5025907;28;20025;-67
2022/03/09 06:07:03;;;;;;;10.82;10.13;;;;;;;-2.72;99.64;101147.91;5033011;28;20013;-66
2022/03/09 06:09:29;;;;;;;10.60;9.98;;;;;;;-2.60;99.69;101155.09;5028411;28;20118;-67
2022/03/09 06:11:55;;;;;;;10.52;9.93;;;;;;;-2.41;98.13;101150.69;5039689;28;20095;-66
2022/03/09 06:14:21;;;;;;;10.27;9.68;;;;;;;-2.04;96.15;101161.81;5031848;28;20026;-67
2022/03/09 06:16:49;;;;;;;10.38;9.70;;;;;;;-1.47;94.19;101176.16;5032228;28;20033;-68
2022/03/09 06:19:16;;;;;;;10.18;9.50;;;;;;;-1.41;89.36;101174.97;5029381;28;20025;-70
2022/03/09 06:21:41;;;;;;;9.18;8.68;;;;;;;-0.39;85.99;101169.25;5037127;28;20066;-70
2022/03/09 06:24:07;;;;;;;9.85;9.25;;;;;;;-0.62;88.53;101174.94;5027229;28;20107;-70
2022/03/09 06:26:33;;;;;;;10.07;9.43;;;;;;;-1.19;88.81;101185.91;5031952;28;20030;-70
2022/03/09 06:28:58;;;;;;;8.40;8.00;;;;;;;-1.10;90.88;101179.38;5021662;28;20029;-70
2022/03/09 06:31:24;;;;;;;9.27;8.73;;;;;;;-1.54;88.54;101153.97;5033562;28;20061;-70
2022/03/09 06:33:49;;;;;;;9.38;8.88;;;;;;;-1.32;90.69;101181.44;5039953;28;20401;-70
2022/03/09 06:36:16;;;;;;;10.30;9.60;;;;;;;-1.07;90.53;101179.19;5029888;28;20079;-70
2022/03/09 06:38:42;;;;;;;9.70;9.10;;;;;;;-1.33;89.03;101169.34;5035273;28;20044;-71
2022/03/09 06:41:07;;;;;;;9.93;9.32;;;;;;;-1.76;89.81;101175.09;5036955;28;20025;-74
2022/03/09 06:43:33;;;;;;;10.73;10.02;;;;;;;-1.40;90.49;101174.03;5034668;28;20040;-71
2022/03/09 06:45:58;;;;;;;10.25;9.65;;;;;;;-1.22;90.33;101182.63;5046726;28;20025;-71
2022/03/09 06:48:24;;;;;;;10.70;10.00;;;;;;;-1.23;89.45;101178.34;5043588;28;20056;-71
2022/03/09 06:50:49;;;;;;;10.98;10.20;;;;;;;-0.97;87.76;101180.34;5033429;28;20036;-71
2022/03/09 06:53:15;;;;;;;10.20;9.60;;;;;;;-1.68;89.47;101187.69;5031338;28;20484;-68
2022/03/09 06:55:41;;;;;;;9.90;9.30;;;;;;;-1.55;88.35;101199.09;5031973;28;20029;-69
2022/03/09 06:58:06;;;;;;;10.07;9.48;;;;;;;-1.57;88.44;101202.72;5034010;28;20026;-69
2022/03/09 07:00:32;;;;;;;9.63;9.13;;;;;;;-1.39;88.29;101212.19;5027145;28;20087;-69
2022/03/09 07:02:59;;;;;;;10.75;10.05;;;;;;;-1.51;88.15;101215.41;5032601;28;20091;-68
2022/03/09 07:05:25;;;;;;;9.23;8.73;;;;;;;-1.51;88.20;101216.25;5023216;28;20083;-66
2022/03/09 07:07:51;;;;;;;9.65;9.05;;;;;;;-1.36;88.27;101214.59;5019306;28;20427;-68
2022/03/09 07:10:16;;;;;;;9.98;9.38;;;;;;;-1.50;87.65;101212.72;5031805;28;20100;-69
2022/03/09 07:12:44;;;;;;;10.23;9.60;;;;;;;-1.60;88.05;101224.53;5032828;28;20071;-69
2022/03/09 07:15:10;;;;;;;9.50;9.00;;;;;;;-1.64;87.93;101212.59;5021769;28;20468;-67
2022/03/09 07:17:37;;;;;;;10.32;9.73;;;;;;;-1.88;88.37;101230.31;5043824;28;20385;-68
2022/03/09 07:20:03;;;;;;;10.00;9.40;;;;;;;-1.76;86.83;101237.50;5018624;28;20029;-69
2022/03/09 07:22:29;;;;;;;10.48;9.82;;;;;;;-1.73;86.54;101224.34;5023216;28;20028;-69
2022/03/09 07:24:54;;;;;;;9.35;8.85;;;;;;;-1.83;87.43;101228.34;5030679;28;20052;-69
2022/03/09 07:27:21;;;;;;;10.13;9.50;;;;;;;-1.80;86.94;101230.75;5028864;28;20024;-67
2022/03/09 07:29:47;;;;;;;10.45;9.80;;;;;;;-1.50;86.59;101227.50;5028207;28;20036;-68
2022/03/09 07:32:14;;;;;;;10.75;10.05;;;;;;;-1.29;85.75;101223.75;5009350;28;20392;-71
2022/03/09 07:34:42;;;;;;;9.95;9.35;;;;;;;-0.98;84.80;101237.72;5028400;28;20481;-68
2022/03/09 07:37:08;;;;;;;10.25;9.57;;;;;;;-1.14;84.93;101229.91;5037251;28;20038;-68
2022/03/09 07:39:35;;;;;;;10.25;9.55;;;;;;;-0.84;83.70;101232.63;5024685;28;20036;-67
2022/03/09 07:42:01;;;;;;;9.73;9.13;;;;;;;-1.58;84.35;101209.69;5027766;28;20094;-67
2022/03/09 07:44:26;;;;;;;10.05;9.45;;;;;;;-1.23;83.94;101230.41;5036121;28;20025;-67
2022/03/09 07:46:52;;;;;;;10.57;9.88;;;;;;;-0.92;82.76;101225.22;5033219;28;20071;-68
2022/03/09 07:49:19;;;;;;;10.10;9.50;;;;;;;-0.57;81.56;101228.47;5030916;28;20040;-68
2022/03/09 07:51:45;;;;;;;9.75;9.15;;;;;;;-0.24;80.90;101221.44;5029034;28;20045;-67
2022/03/09 07:54:11;;;;;;;10.63;9.90;;;;;;;-0.03;79.01;101230.63;5029065;28;20124;-68
2022/03/09 07:56:37;;;;;;;11.93;11.02;;;;;;;0.34;77.91;101231.91;5034848;28;20025;-70
2022/03/09 07:59:04;;;;;;;9.95;9.35;;;;;;;1.21;73.81;101210.84;5021696;28;20087;-67
2022/03/09 08:01:30;;;;;;;8.93;8.43;;;;;;;1.20;72.26;101232.69;5029089;28;20025;-70
2022/03/09 08:03:55;;;;;;;8.90;8.40;;;;;;;1.19;72.90;101224.94;5025408;28;20631;-70
2022/03/09 08:06:21;;;;;;;9.73;9.10;;;;;;;1.14;73.40;101251.34;5032462;28;20032;-71
2022/03/09 08:08:47;;;;;;;10.30;9.60;;;;;;;0.95;74.07;101241.19;5042723;28;20021;-69
2022/03/09 08:11:13;;;;;;;10.52;9.82;;;;;;;0.59;74.18;101243.47;5028300;28;20031;-70
2022/03/09 08:13:39;;;;;;;9.75;9.15;;;;;;;0.41;76.86;101234.97;5023495;28;20087;-69
2022/03/09 08:16:05;;;;;;;10.25;9.57;;;;;;;0.13;76.21;101230.56;5040334;28;20021;-70
2022/03/09 08:18:30;;;;;;;10.07;9.48;;;;;;;0.35;75.72;101235.34;5050184;28;20040;-69
2022/03/09 08:20:56;;;;;;;9.38;8.82;;;;;;;0.21;75.88;101250.03;5050023;28;20052;-70
2022/03/09 08:23:23;;;;;;;10.60;9.90;;;;;;;1.47;73.31;101248.38;5041084;28;20025;-68
2022/03/09 08:25:49;;;;;;;11.82;10.98;;;;;;;3.41;67.52;101257.84;5036856;28;20028;-68
2022/03/09 08:28:15;;;;;;;9.48;8.88;;;;;;;6.45;56.24;101260.25;5032678;28;20665;-68
2022/03/09 08:30:41;;;;;;;8.57;8.07;;;;;;;7.99;50.86;101254.53;5031714;28;20033;-69
2022/03/09 08:33:07;;;;;;;8.07;7.68;;;;;;;8.26;47.67;101251.19;5023103;28;20029;-68
2022/03/09 08:35:33;;;;;;;8.02;7.63;;;;;;;9.26;43.45;101256.69;5030655;28;20527;-70
2022/03/09 08:37:58;;;;;;;7.47;7.13;;;;;;;8.19;42.66;101250.91;5027785;28;20030;-71
2022/03/09 08:40:24;;;;;;;8.23;7.82;;;;;;;9.01;44.05;101255.56;5027794;28;20026;-71
2022/03/09 08:42:49;;;;;;;8.00;7.60;;;;;;;9.99;42.87;101256.59;5026481;28;20025;-69
2022/03/09 08:45:15;;;;;;;8.35;7.95;;;;;;;9.31;41.02;101249.13;5030177;28;20111;-70
2022/03/09 08:47:40;;;;;;;8.27;7.88;;;;;;;10.14;40.50;101251.59;5026439;28;20026;-72
2022/03/09 08:50:07;;;;;;;8.63;8.23;;;;;;;9.05;42.03;101264.88;5026929;28;20484;-71
2022/03/09 08:52:33;;;;;;;9.38;8.88;;;;;;;8.47;44.16;101266.91;5030168;28;20025;-71
2022/03/09 08:54:58;;;;;;;8.30;7.90;;;;;;;11.49;40.30;101267.72;5024893;28;20477;-71
2022/03/09 08:57:24;;;;;;;9.90;9.40;;;;;;;12.55;37.72;101262.44;5021495;28;20469;-70
2022/03/09 08:59:49;;;;;;;9.60;9.10;;;;;;;11.23;38.85;101262.47;5031606;28;20326;-68
2022/03/09 09:02:15;;;;;;;10.30;9.77;;;;;;;12.31;35.69;101261.47;5039469;28;20060;-72
2022/03/09 09:04:41;;;;;;;9.90;9.40;;;;;;;12.65;35.80;101253.28;5026224;28;20715;-72
2022/03/09 09:07:07;;;;;;;9.38;8.88;;;;;;;9.15;40.71;101262.19;5019588;28;20104;-72
2022/03/09 09:09:33;;;;;;;10.20;9.65;;;;;;;9.62;40.95;101254.94;5030461;28;20048;-70
2022/03/09 09:11:59;;;;;;;10.90;10.30;;;;;;;7.39;46.01;101259.94;5030455;28;20384;-71
2022/03/09 09:14:25;;;;;;;10.43;9.82;;;;;;;10.79;39.06;101258.13;5028013;28;20669;-72
2022/03/09 09:16:51;;;;;;;11.23;10.52;;;;;;;10.77;38.99;101256.66;5041298;28;20140;-71
2022/03/09 09:19:17;;;;;;;9.90;9.40;;;;;;;10.43;39.08;101252.16;5019919;28;20124;-73
2022/03/09 09:21:42;;;;;;;10.02;9.52;;;;;;;10.20;37.78;101237.69;5035816;28;20503;-74
2022/03/09 09:24:08;;;;;;;9.35;8.85;;;;;;;11.87;37.97;101255.66;5029776;28;20546;-71
2022/03/09 09:26:33;;;;;;;9.77;9.27;;;;;;;10.47;37.77;101245.53;5029841;28;20029;-70
2022/03/09 09:28:59;;;;;;;10.57;9.98;;;;;;;10.35;39.10;101249.41;5033217;28;20035;-73
2022/03/09 09:31:24;;;;;;;8.93;8.52;;;;;;;10.11;38.92;101243.91;5023435;28;20031;-73
2022/03/09 09:33:50;;;;;;;9.27;8.80;;;;;;;8.08;39.63;101252.88;5036499;28;20053;-76
2022/03/09 09:36:16;;;;;;;9.05;8.57;;;;;;;7.30;44.13;101255.47;5026585;28;20098;-73
2022/03/09 09:38:41;;;;;;;8.77;8.38;;;;;;;7.42;44.38;101250.94;5031058;28;20048;-73
2022/03/09 09:41:13;;;;;;;8.82;8.43;;;;;;;6.00;46.88;101242.06;5033601;28;20485;-74
2022/03/09 09:43:40;;;;;;;10.20;9.60;;;;;;;7.31;45.98;101235.19;5032276;28;20033;-72
2022/03/09 09:46:06;;;;;;;9.90;9.30;;;;;;;7.53;44.22;101232.31;5032683;28;20025;-72
2022/03/09 09:48:32;;;;;;;9.20;8.70;;;;;;;5.61;49.13;101225.94;5026212;28;20104;-72
2022/03/09 09:50:58;;;;;;;9.43;8.93;;;;;;;4.29;46.09;101230.25;5029437;28;20477;-73
2022/03/09 09:53:27;;;;;;;9.95;9.35;;;;;;;4.68;47.38;101225.50;5033084;28;20104;-74
2022/03/09 09:55:53;;;;;;;9.32;8.82;;;;;;;5.72;46.83;101217.97;5029940;28;20373;-73
2022/03/09 09:58:20;;;;;;;9.55;9.05;;;;;;;6.24;45.83;101229.50;5032623;28;20052;-73
2022/03/09 10:00:46;;;;;;;10.05;9.45;;;;;;;7.11;45.18;101221.09;5028213;28;20257;-73
2022/03/09 10:03:12;;;;;;;9.32;8.82;;;;;;;5.15;46.13;101219.16;5034286;28;20095;-72
2022/03/09 10:05:37;;;;;;;9.48;8.90;;;;;;;4.34;48.35;101222.03;5033091;28;20492;-71
2022/03/09 10:08:03;;;;;;;10.13;9.52;;;;;;;3.80;51.49;101227.84;5031651;28;20047;-71
2022/03/09 10:10:37;;;;;;;11.05;10.35;;;;;;;2.68;53.54;101220.16;5031348;28;20033;-72
2022/03/09 10:13:17;;;;;;;9.40;8.90;;;;;;;1.71;58.51;101227.66;5018242;28;20444;-73
2022/03/09 10:15:45;;;;;;;10.48;9.82;;;;;;;2.73;54.25;101225.94;5022001;28;20432;-72
2022/03/09 10:18:12;;;;;;;9.80;9.20;;;;;;;4.26;50.17;101213.88;5033871;28;20025;-73
2022/03/09 10:20:37;;;;;;;10.85;10.15;;;;;;;2.43;54.29;101223.66;5020282;28;20029;-70
2022/03/09 10:23:03;;;;;;;9.30;8.80;;;;;;;2.47;53.62;101212.00;5026005;28;20037;-71
2022/03/09 10:25:28;;;;;;;9.15;8.65;;;;;;;3.31;53.06;101226.22;5023065;28;20389;-72
2022/03/09 10:27:56;;;;;;;10.88;10.13;;;;;;;2.07;54.56;101231.38;5026780;28;20033;-71
2022/03/09 10:30:24;;;;;;;12.02;11.13;;;;;;;1.81;53.57;101226.09;5032762;28;20031;-71
2022/03/09 10:32:49;;;;;;;9.70;9.10;;;;;;;2.58;52.75;101226.16;5027371;28;20037;-70
2022/03/09 10:35:20;;;;;;;9.05;8.55;;;;;;;2.96;52.56;101216.47;5022943;28;20041;-71
2022/03/09 10:37:47;;;;;;;9.02;8.52;;;;;;;3.45;50.95;101209.44;5032054;28;20172;-72
2022/03/09 10:40:20;;;;;;;10.07;9.43;;;;;;;3.02;49.58;101179.34;5026724;28;20162;-72
2022/03/09 10:42:47;;;;;;;9.02;8.52;;;;;;;3.10;50.37;101201.53;5043605;28;20095;-69
2022/03/09 10:45:17;;;;;;;8.77;8.30;;;;;;;2.38;50.63;101211.81;5031552;28;20033;-73
2022/03/09 10:47:47;;;;;;;9.50;8.90;;;;;;;3.41;49.32;101219.34;5035023;28;20025;-72
2022/03/09 10:50:13;;;;;;;9.13;8.63;;;;;;;3.69;50.12;101215.53;5033671;28;20388;-73
2022/03/09 10:52:49;;;;;;;9.80;9.20;;;;;;;1.87;52.72;101202.16;5040074;28;20028;-72
2022/03/09 10:55:29;;;;;;;9.38;8.80;;;;;;;2.86;51.55;101209.34;5031190;28;20021;-72
2022/03/09 10:58:14;;;;;;;9.05;8.55;;;;;;;2.67;52.23;101208.03;5019423;28;20481;-72
2022/03/09 11:00:44;;;;;;;10.38;9.68;;;;;;;2.48;51.65;101210.22;5029402;28;20045;-71
2022/03/09 11:03:13;;;;;;;8.88;8.38;;;;;;;2.14;49.53;101214.34;5022175;28;20111;-72
2022/03/09 11:05:57;;;;;;;10.02;9.43;;;;;;;1.86;51.07;101213.56;5041624;28;20041;-73
2022/03/09 11:08:34;;;;;;;9.07;8.57;;;;;;;1.98;48.65;101214.50;5029606;28;20021;-72
2022/03/09 11:10:59;;;;;;;9.45;8.85;;;;;;;2.94;49.22;101202.63;5027563;28;20022;-72
2022/03/09 11:13:27;;;;;;;10.55;9.85;;;;;;;2.76;48.74;101204.75;5042927;28;20032;-73
2022/03/09 11:15:54;;;;;;;9.93;9.27;;;;;;;2.32;49.77;101188.66;5042014;28;20032;-72